createdAt,value
2018-04-26T00:00:45.605Z,86.51
2018-04-26T00:01:45.241Z,87.37
2018-04-26T00:02:45.567Z,88.23
2018-04-26T00:03:45.258Z,90.22
2018-04-26T00:04:45.630Z,89.47
2018-04-26T00:05:45.451Z,89.37
2018-04-26T00:06:45.689Z,90.13
2018-04-26T00:07:45.440Z,89.18
2018-04-26T00:08:45.425Z,87.27
2018-04-26T00:09:45.210Z,86.9
2018-04-26T00:10:45.493Z,86.61
2018-04-26T00:11:45.149Z,86.7
2018-04-26T00:12:45.165Z,84.8
2018-04-26T00:13:45.334Z,83.75
2018-04-26T00:14:45.294Z,83.85
2018-04-26T00:15:45.293Z,85.94
2018-04-26T00:16:45.007Z,89.94
2018-04-26T00:17:45.217Z,91.08
2018-04-26T00:18:44.952Z,90.61
2018-04-26T00:19:45.194Z,90.99
2018-04-26T00:20:45.192Z,91.17
2018-04-26T00:21:45.180Z,90.99
2018-04-26T00:22:45.169Z,89.75
2018-04-26T00:23:44.899Z,88.99
2018-04-26T00:24:45.146Z,89.37
2018-04-26T00:25:44.881Z,89.18
2018-04-26T00:26:45.132Z,89.08
2018-04-26T00:27:45.129Z,89.7
2018-04-26T00:28:45.107Z,90.61
2018-04-26T00:29:45.103Z,89.18
2018-04-26T00:30:45.094Z,89.65
2018-04-26T00:31:45.089Z,90.13
2018-04-26T00:32:45.074Z,88.79
2018-04-26T00:33:44.802Z,88.46
2018-04-26T00:34:45.050Z,87.08
2018-04-26T00:35:45.038Z,85.94
2018-04-26T00:36:45.031Z,85.9
2018-04-26T00:37:45.020Z,86.7
2018-04-26T00:38:45.010Z,88.09
2018-04-26T00:39:45.006Z,89.14
2018-04-26T00:40:44.731Z,89.42
2018-04-26T00:41:44.723Z,89.32
2018-04-26T00:42:44.969Z,88.37
2018-04-26T00:43:44.701Z,89.7
2018-04-26T00:44:44.950Z,89.23
2018-04-26T00:45:44.939Z,87.99
2018-04-26T00:46:44.930Z,88.37
2018-04-26T00:47:44.920Z,87.71
2018-04-26T00:48:44.912Z,87.9
2018-04-26T00:49:44.900Z,88.18
2018-04-26T00:50:44.890Z,87.04
2018-04-26T00:51:44.879Z,86.47
2018-04-26T00:52:44.612Z,86.66
2018-04-26T00:53:44.858Z,86.85
2018-04-26T00:54:44.851Z,88.18
2018-04-26T00:55:44.841Z,87.32
2018-04-26T00:56:44.830Z,87.42
2018-04-26T00:57:44.826Z,86.76
2018-04-26T00:58:44.552Z,86.94
2018-04-26T00:59:44.541Z,89.42
2018-04-26T01:00:44.533Z,89.61
2018-04-26T01:01:44.790Z,88.46
2018-04-26T01:02:44.775Z,87.13
2018-04-26T01:03:44.779Z,86.18
2018-04-26T01:04:44.498Z,88.13
2018-04-26T01:05:44.742Z,87.95
2018-04-26T01:06:44.473Z,88.61
2018-04-26T01:07:44.725Z,88.13
2018-04-26T01:08:44.710Z,89.14
2018-04-26T01:09:44.706Z,88.61
2018-04-26T01:10:44.709Z,88.61
2018-04-26T01:11:44.686Z,88.71
2018-04-26T01:12:44.671Z,88.33
2018-04-26T01:13:44.404Z,88.9
2018-04-26T01:14:44.392Z,89.66
2018-04-26T01:15:44.639Z,90.14
2018-04-26T01:16:44.630Z,90.14
2018-04-26T01:17:44.362Z,90.8
2018-04-26T01:18:44.609Z,92.03
2018-04-26T01:19:44.600Z,91.18
2018-04-26T01:20:44.588Z,91.47
2018-04-26T01:21:44.325Z,90.99
2018-04-26T01:22:44.308Z,90.04
2018-04-26T01:23:44.565Z,88.61
2018-04-26T01:24:44.526Z,90.04
2018-04-26T01:25:44.535Z,90.52
2018-04-26T01:26:44.524Z,90.7
2018-04-26T01:27:44.521Z,90.23
2018-04-26T01:28:44.523Z,89.66
2018-04-26T01:29:44.239Z,89
2018-04-26T01:30:44.484Z,87.95
2018-04-26T01:31:44.471Z,85.95
2018-04-26T01:32:44.465Z,85.86
2018-04-26T01:33:44.196Z,85.38
2018-04-26T01:34:44.442Z,87.28
2018-04-26T01:35:44.445Z,87.95
2018-04-26T01:36:44.420Z,88.23
2018-04-26T01:37:44.152Z,88.23
2018-04-26T01:38:44.420Z,87.09
2018-04-26T01:39:44.130Z,87.95
2018-04-26T01:40:44.119Z,88.33
2018-04-26T01:41:44.369Z,89
2018-04-26T01:42:44.355Z,89
2018-04-26T01:43:44.092Z,88.13
2018-04-26T01:44:44.077Z,87.19
2018-04-26T01:45:44.325Z,86.61
2018-04-26T01:46:44.313Z,85.95
2018-04-26T01:47:44.302Z,85.81
2018-04-26T01:48:44.291Z,86.33
2018-04-26T01:49:44.281Z,85.19
2018-04-26T01:50:44.270Z,85.86
2018-04-26T01:51:44.262Z,85.66
2018-04-26T01:52:43.992Z,86.05
2018-04-26T01:53:44.237Z,85.53
2018-04-26T01:54:43.970Z,86.29
2018-04-26T01:55:44.218Z,86.19
2018-04-26T01:56:44.206Z,86.19
2018-04-26T01:57:44.200Z,85.66
2018-04-26T01:58:44.188Z,84.43
2018-04-26T01:59:44.183Z,83.86
2018-04-26T02:00:43.906Z,84.81
2018-04-26T02:01:43.894Z,85.57
2018-04-26T02:02:44.145Z,86.33
2018-04-26T02:03:44.334Z,85.86
2018-04-26T02:04:44.121Z,86.14
2018-04-26T02:05:44.112Z,86.05
2018-04-26T02:06:43.843Z,85.86
2018-04-26T02:07:43.831Z,86.52
2018-04-26T02:08:44.079Z,86.33
2018-04-26T02:09:44.084Z,86.33
2018-04-26T02:10:43.798Z,86.71
2018-04-26T02:11:43.787Z,86.24
2018-04-26T02:12:43.783Z,84.62
2018-04-26T02:13:43.766Z,84.14
2018-04-26T02:14:44.015Z,83.76
2018-04-26T02:15:44.003Z,84.05
2018-04-26T02:16:44.212Z,83.76
2018-04-26T02:17:43.983Z,83.19
2018-04-26T02:18:43.973Z,82.91
2018-04-26T02:19:43.963Z,83.67
2018-04-26T02:20:43.693Z,84.52
2018-04-26T02:21:43.939Z,83.58
2018-04-26T02:22:43.927Z,84.52
2018-04-26T02:23:43.921Z,84.62
2018-04-26T02:24:43.908Z,84.91
2018-04-26T02:25:43.898Z,86.05
2018-04-26T02:26:43.891Z,85.86
2018-04-26T02:27:43.872Z,85.66
2018-04-26T02:28:43.872Z,85.66
2018-04-26T02:29:43.852Z,84.52
2018-04-26T02:30:43.588Z,85
2018-04-26T02:31:43.840Z,85.38
2018-04-26T02:32:43.821Z,85.95
2018-04-26T02:33:43.813Z,85.1
2018-04-26T02:34:43.806Z,85.57
2018-04-26T02:35:43.791Z,85.1
2018-04-26T02:36:43.520Z,84.81
2018-04-26T02:37:43.767Z,84.52
2018-04-26T02:38:43.755Z,83.76
2018-04-26T02:39:43.750Z,83.39
2018-04-26T02:40:43.956Z,83
2018-04-26T02:41:43.723Z,83.19
2018-04-26T02:42:43.730Z,83.1
2018-04-26T02:43:43.444Z,83.67
2018-04-26T02:44:43.694Z,83.1
2018-04-26T02:45:43.684Z,82.62
2018-04-26T02:46:43.421Z,81.48
2018-04-26T02:47:43.666Z,80.44
2018-04-26T02:48:43.650Z,80.72
2018-04-26T02:49:43.638Z,80.44
2018-04-26T02:50:43.626Z,80.34
2018-04-26T02:51:43.616Z,77.87
2018-04-26T02:52:43.346Z,75.3
2018-04-26T02:53:43.596Z,73.93
2018-04-26T02:54:43.597Z,72.32
2018-04-26T02:55:43.315Z,72.03
2018-04-26T02:56:43.565Z,68.99
2018-04-26T02:57:43.553Z,67.38
2018-04-26T02:58:43.543Z,65.28
2018-04-26T02:59:43.529Z,63.95
2018-04-26T03:00:43.531Z,63.67
2018-04-26T03:01:43.510Z,62.62
2018-04-26T03:02:43.503Z,61.48
2018-04-26T03:03:43.504Z,60.16
2018-04-26T03:04:43.218Z,58.63
2018-04-26T03:05:43.463Z,58.25
2018-04-26T03:06:43.462Z,57.78
2018-04-26T03:07:43.186Z,56.73
2018-04-26T03:08:43.432Z,55.88
2018-04-26T03:09:43.165Z,55.21
2018-04-26T03:10:43.409Z,54.93
2018-04-26T03:11:43.159Z,53.88
2018-04-26T03:12:43.389Z,53.5
2018-04-26T03:13:43.390Z,52.45
2018-04-26T03:14:43.110Z,52.26
2018-04-26T03:15:43.361Z,51.7
2018-04-26T03:16:43.347Z,51.22
2018-04-26T03:17:43.331Z,50.56
2018-04-26T03:18:43.062Z,50.18
2018-04-26T03:19:43.317Z,50.1
2018-04-26T03:20:43.307Z,50.68
2018-04-26T03:21:43.294Z,51.43
2018-04-26T03:22:43.280Z,52.01
2018-04-26T03:23:43.267Z,52.86
2018-04-26T03:24:42.996Z,53.24
2018-04-26T03:25:43.245Z,53.81
2018-04-26T03:26:43.237Z,54.29
2018-04-26T03:27:42.966Z,54.29
2018-04-26T03:28:43.211Z,54.57
2018-04-26T03:29:43.427Z,54.19
2018-04-26T03:30:43.195Z,54.57
2018-04-26T03:31:42.923Z,54.19
2018-04-26T03:32:42.910Z,54.38
2018-04-26T03:33:43.159Z,54.38
2018-04-26T03:34:43.162Z,53.91
2018-04-26T03:35:43.139Z,53.24
2018-04-26T03:36:42.868Z,53.24
2018-04-26T03:37:43.113Z,52.86
2018-04-26T03:38:43.106Z,52.1
2018-04-26T03:39:43.093Z,52.01
2018-04-26T03:40:43.089Z,52.39
2018-04-26T03:41:43.071Z,52.86
2018-04-26T03:42:43.064Z,53.24
2018-04-26T03:43:42.789Z,53.05
2018-04-26T03:44:42.779Z,53.63
2018-04-26T03:45:43.027Z,53.43
2018-04-26T03:46:43.014Z,53.43
2018-04-26T03:47:42.749Z,54
2018-04-26T03:48:42.994Z,55.05
2018-04-26T03:49:42.727Z,55.81
2018-04-26T03:50:42.987Z,56.19
2018-04-26T03:51:42.963Z,56.95
2018-04-26T03:52:42.951Z,58.18
2018-04-26T03:53:42.941Z,59.99
2018-04-26T03:54:42.679Z,60.09
2018-04-26T03:55:42.919Z,60.18
2018-04-26T03:56:42.908Z,59.14
2018-04-26T03:57:42.894Z,58.95
2018-04-26T03:58:42.627Z,58.95
2018-04-26T03:59:42.880Z,59.14
2018-04-26T04:00:42.609Z,59.71
2018-04-26T04:01:42.596Z,59.23
2018-04-26T04:02:42.845Z,59.68
2018-04-26T04:03:42.837Z,58.83
2018-04-26T04:04:42.823Z,58.73
2018-04-26T04:05:42.553Z,58.54
2018-04-26T04:06:42.800Z,58.06
2018-04-26T04:07:42.788Z,57.59
2018-04-26T04:08:42.793Z,57.21
2018-04-26T04:09:42.766Z,56.83
2018-04-26T04:10:42.754Z,56.35
2018-04-26T04:11:42.747Z,56.54
2018-04-26T04:12:42.738Z,55.88
2018-04-26T04:13:42.492Z,54.55
2018-04-26T04:14:42.712Z,53.78
2018-04-26T04:15:42.697Z,52.17
2018-04-26T04:16:42.704Z,51.7
2018-04-26T04:17:42.685Z,51.41
2018-04-26T04:18:42.670Z,50.56
2018-04-26T04:19:42.397Z,50.37
2018-04-26T04:20:42.644Z,50.18
2018-04-26T04:21:42.728Z,49.04
2018-04-26T04:22:42.365Z,48.75
2018-04-26T04:23:42.614Z,48.66
2018-04-26T04:24:42.598Z,48.66
2018-04-26T04:25:42.331Z,48.46
2018-04-26T04:26:42.581Z,48.08
2018-04-26T04:27:42.308Z,48.85
2018-04-26T04:28:42.555Z,50.37
2018-04-26T04:29:42.544Z,51.98
2018-04-26T04:30:42.534Z,52.45
2018-04-26T04:31:42.523Z,52.93
2018-04-26T04:32:42.735Z,54.38
2018-04-26T04:33:42.576Z,55.15
2018-04-26T04:34:42.230Z,58.09
2018-04-26T04:35:42.479Z,59.9
2018-04-26T04:36:42.209Z,61.13
2018-04-26T04:37:42.196Z,63.23
2018-04-26T04:38:42.444Z,63.7
2018-04-26T04:39:42.462Z,63.99
2018-04-26T04:40:42.422Z,63.6
2018-04-26T04:41:42.411Z,64.65
2018-04-26T04:42:42.400Z,64.94
2018-04-26T04:43:42.390Z,66.74
2018-04-26T04:44:42.380Z,65.6
2018-04-26T04:45:42.372Z,63.99
2018-04-26T04:46:42.357Z,64.94
2018-04-26T04:47:42.347Z,67.41
2018-04-26T04:48:42.339Z,68.07
2018-04-26T04:49:42.322Z,67.88
2018-04-26T04:50:42.514Z,67.5
2018-04-26T04:51:42.313Z,70.17
2018-04-26T04:52:42.290Z,70.17
2018-04-26T04:53:42.278Z,70.45
2018-04-26T04:54:42.268Z,70.07
2018-04-26T04:55:42.260Z,69.41
2018-04-26T04:56:42.246Z,69.98
2018-04-26T04:57:41.979Z,72.07
2018-04-26T04:58:42.227Z,74.87
2018-04-26T04:59:42.215Z,73.69
2018-04-26T05:00:42.230Z,74.73
2018-04-26T05:01:42.194Z,75.43
2018-04-26T05:02:42.182Z,77.15
2018-04-26T05:03:42.241Z,78.67
2018-04-26T05:04:42.158Z,79.62
2018-04-26T05:05:42.165Z,81.62
2018-04-26T05:06:42.140Z,82.28
2018-04-26T05:07:41.874Z,81.52
2018-04-26T05:08:41.861Z,82.95
2018-04-26T05:09:42.114Z,84.19
2018-04-26T05:10:41.842Z,84.76
2018-04-26T05:11:42.088Z,83.52
2018-04-26T05:12:42.077Z,82.95
2018-04-26T05:13:42.072Z,84
2018-04-26T05:14:41.798Z,86.66
2018-04-26T05:15:42.047Z,86.66
2018-04-26T05:16:41.778Z,88.37
2018-04-26T05:17:42.024Z,89.61
2018-04-26T05:18:41.757Z,89.23
2018-04-26T05:19:42.039Z,89.04
2018-04-26T05:20:42.014Z,88.94
2018-04-26T05:21:41.984Z,90.22
2018-04-26T05:22:41.973Z,92.89
2018-04-26T05:23:41.706Z,91.27
2018-04-26T05:24:42.174Z,90.51
2018-04-26T05:25:42.060Z,91.46
2018-04-26T05:26:41.931Z,92.03
2018-04-26T05:27:41.924Z,92.03
2018-04-26T05:28:41.913Z,91.89
2018-04-26T05:29:41.902Z,92.08
2018-04-26T05:30:41.894Z,95.41
2018-04-26T05:31:41.884Z,95.22
2018-04-26T05:32:41.615Z,95.03
2018-04-26T05:33:41.668Z,95.12
2018-04-26T05:34:41.853Z,96.08
2018-04-26T05:35:41.588Z,96.46
2018-04-26T05:36:41.837Z,97.7
2018-04-26T05:37:41.823Z,97.7
2018-04-26T05:38:41.814Z,97.31
2018-04-26T05:39:41.803Z,99.32
2018-04-26T05:40:42.006Z,97.6
2018-04-26T05:41:41.528Z,98.13
2018-04-26T05:42:41.777Z,98.13
2018-04-26T05:43:41.765Z,96.41
2018-04-26T05:44:41.756Z,96.51
2018-04-26T05:45:41.489Z,96.55
2018-04-26T05:46:41.479Z,97.22
2018-04-26T05:47:41.745Z,96.65
2018-04-26T05:48:41.736Z,97.22
2018-04-26T05:49:41.711Z,96.17
2018-04-26T05:50:41.704Z,97.31
2018-04-26T05:51:41.432Z,97.51
2018-04-26T05:52:41.679Z,97.27
2018-04-26T05:53:41.674Z,97.17
2018-04-26T05:54:41.660Z,96.7
2018-04-26T05:55:41.765Z,96.12
2018-04-26T05:56:41.642Z,97.46
2018-04-26T05:57:41.632Z,96.98
2018-04-26T05:58:41.365Z,96.31
2018-04-26T05:59:41.357Z,97.65
2018-04-26T06:00:41.345Z,97.74
2018-04-26T06:01:41.339Z,98.5
2018-04-26T06:02:41.584Z,98.22
2018-04-26T06:03:41.662Z,99.13
2018-04-26T06:04:41.571Z,99.08
2018-04-26T06:05:41.560Z,98.6
2018-04-26T06:06:41.287Z,98.84
2018-04-26T06:07:41.538Z,98.94
2018-04-26T06:08:41.526Z,99.74
2018-04-26T06:09:41.533Z,99.99
2018-04-26T06:10:41.510Z,99.51
2018-04-26T06:11:41.240Z,99.51
2018-04-26T06:12:41.492Z,99.55
2018-04-26T06:13:41.220Z,99.41
2018-04-26T06:14:41.210Z,99.17
2018-04-26T06:15:41.404Z,99.46
2018-04-26T06:16:41.449Z,99.32
2018-04-26T06:17:41.442Z,98.03
2018-04-26T06:18:41.448Z,98.98
2018-04-26T06:19:41.436Z,98.98
2018-04-26T06:21:41.146Z,96.41
2018-04-26T06:22:41.135Z,97.17
2018-04-26T06:23:41.139Z,97.74
2018-04-26T06:24:41.373Z,98.22
2018-04-26T06:25:41.106Z,98.41
2018-04-26T06:26:41.353Z,99.08
2018-04-26T06:27:41.367Z,99.13
2018-04-26T06:28:41.335Z,97.99
2018-04-26T06:29:41.325Z,97.7
2018-04-26T06:30:41.316Z,97.13
2018-04-26T06:31:41.049Z,97.6
2018-04-26T06:32:41.297Z,97.51
2018-04-26T06:33:41.288Z,96.84
2018-04-26T06:34:41.295Z,95.94
2018-04-26T06:35:41.012Z,96.36
2018-04-26T06:36:41.003Z,95.6
2018-04-26T06:37:41.251Z,94.79
2018-04-26T06:38:41.240Z,94.22
2018-04-26T06:39:41.229Z,93.55
2018-04-26T06:40:41.231Z,93.74
2018-04-26T06:41:41.213Z,93.37
2018-04-26T06:42:41.203Z,92.5
2018-04-26T06:43:41.201Z,90.74
2018-04-26T06:44:41.214Z,84.98
2018-04-26T06:45:41.180Z,86.88
2018-04-26T06:46:41.168Z,86.6
2018-04-26T06:47:41.165Z,88.41
2018-04-26T06:48:40.895Z,85.69
2018-04-26T06:49:40.885Z,85.31
2018-04-26T06:50:41.141Z,83.06
2018-04-26T06:51:41.126Z,77.7
2018-04-26T06:52:41.116Z,74.84
2018-04-26T06:53:40.853Z,72.45
2018-04-26T06:54:41.107Z,72.68
2018-04-26T06:55:41.101Z,70.67
2018-04-26T06:56:41.087Z,71.72
2018-04-26T06:57:41.078Z,71.57
2018-04-26T06:58:41.071Z,65.71
2018-04-26T06:59:41.066Z,64.31
2018-04-26T07:00:41.072Z,60.61
2018-04-26T07:01:40.791Z,57.19
2018-04-26T07:02:41.047Z,53
2018-04-26T07:03:41.037Z,53.48
2018-04-26T07:04:41.029Z,52.14
2018-04-26T07:05:41.081Z,51.75
2018-04-26T07:06:41.023Z,52.62
2018-04-26T07:07:40.756Z,52.23
2018-04-26T07:08:41.009Z,51.18
2018-04-26T07:09:41.002Z,50.6
2018-04-26T07:10:40.998Z,51.42
2018-04-26T07:11:41.131Z,53.49
2018-04-26T07:12:40.988Z,54.16
2018-04-26T07:13:41.008Z,55.31
2018-04-26T07:14:40.974Z,51.79
2018-04-26T07:15:40.971Z,49.05
2018-04-26T07:16:40.710Z,47.73
2018-04-26T07:17:40.705Z,48.49
2018-04-26T07:18:40.957Z,50.77
2018-04-26T07:19:40.955Z,51.63
2018-04-26T07:20:40.955Z,52.75
2018-04-26T07:21:40.995Z,51.44
2018-04-26T07:22:40.941Z,48.69
2018-04-26T07:23:40.933Z,49
2018-04-26T07:24:40.930Z,48.33
2018-04-26T07:25:40.935Z,47.01
2018-04-26T07:26:40.921Z,44.9
2018-04-26T07:27:40.659Z,45.47
2018-04-26T07:28:40.658Z,45.64
2018-04-26T07:29:40.911Z,46.62
2018-04-26T07:30:40.916Z,45.67
2018-04-26T07:31:40.901Z,46.34
2018-04-26T07:32:40.898Z,46.91
2018-04-26T07:33:40.632Z,44.46
2018-04-26T07:34:40.891Z,45.23
2018-04-26T07:35:40.641Z,44.27
2018-04-26T07:36:40.900Z,45.11
2018-04-26T07:37:40.879Z,44.56
2018-04-26T07:38:40.613Z,44.24
2018-04-26T07:39:40.612Z,46.6
2018-04-26T07:40:40.616Z,46.46
2018-04-26T07:41:40.856Z,49.95
2018-04-26T07:42:40.852Z,53.16
2018-04-26T07:43:40.849Z,56.57
2018-04-26T07:44:40.636Z,56.82
2018-04-26T07:45:40.838Z,58.33
2018-04-26T07:46:40.836Z,59.19
2018-04-26T07:47:40.828Z,60.58
2018-04-26T07:48:40.563Z,63.99
2018-04-26T07:49:40.871Z,68.09
2018-04-26T07:50:40.804Z,67.52
2018-04-26T07:51:40.539Z,70.19
2018-04-26T07:52:40.533Z,71.2
2018-04-26T07:53:40.786Z,71.77
2018-04-26T07:54:40.780Z,74.63
2018-04-26T07:55:40.516Z,73.96
2018-04-26T07:56:40.505Z,70.15
2018-04-26T07:57:40.773Z,71.11
2018-04-26T07:58:40.751Z,75.87
2018-04-26T07:59:40.482Z,73.39
2018-04-26T08:00:40.733Z,71.3
2018-04-26T08:01:41.111Z,73.11
2018-04-26T08:02:40.717Z,71.87
2018-04-26T08:03:40.710Z,70.06
2018-04-26T08:04:40.700Z,70.25
2018-04-26T08:05:40.698Z,72.53
2018-04-26T08:06:40.689Z,73.07
2018-04-26T08:07:40.678Z,74.21
2018-04-26T08:08:40.413Z,72.97
2018-04-26T08:09:40.668Z,73.74
2018-04-26T08:10:40.655Z,72.72
2018-04-26T08:11:40.835Z,72.63
2018-04-26T08:12:40.403Z,76.69
2018-04-26T08:13:40.373Z,78.16
2018-04-26T08:14:40.631Z,75.55
2018-04-26T08:15:40.621Z,73.83
2018-04-26T08:16:40.628Z,76.03
2018-04-26T08:17:40.600Z,77.17
2018-04-26T08:18:40.593Z,78.78
2018-04-26T08:19:40.358Z,78.41
2018-04-26T08:20:40.318Z,80.69
2018-04-26T08:21:40.311Z,80.12
2018-04-26T08:22:40.562Z,79.46
2018-04-26T08:23:40.551Z,83.45
2018-04-26T08:24:40.542Z,83.07
2018-04-26T08:25:40.277Z,82.5
2018-04-26T08:26:40.274Z,82.31
2018-04-26T08:27:40.260Z,80.79
2018-04-26T08:28:40.512Z,79.93
2018-04-26T08:29:40.502Z,77.93
2018-04-26T08:30:40.498Z,78.41
2018-04-26T08:31:40.228Z,78.46
2018-04-26T08:32:40.477Z,79.6
2018-04-26T08:33:40.475Z,79.41
2018-04-26T08:34:40.459Z,79.8
2018-04-26T08:35:40.192Z,81.32
2018-04-26T08:36:40.183Z,80.65
2018-04-26T08:37:40.175Z,81.7
2018-04-26T08:38:40.427Z,83.13
2018-04-26T08:39:40.161Z,83.98
2018-04-26T08:40:40.405Z,82.9
2018-04-26T08:41:40.142Z,84.99
2018-04-26T08:42:40.390Z,85.56
2018-04-26T08:43:40.380Z,85.75
2018-04-26T08:44:40.379Z,87.46
2018-04-26T08:45:40.482Z,88.7
2018-04-26T08:46:40.358Z,86.32
2018-04-26T08:47:40.345Z,88.13
2018-04-26T08:48:40.333Z,90.8
2018-04-26T08:49:40.324Z,90.8
2018-04-26T08:50:40.313Z,90.42
2018-04-26T08:51:40.305Z,87.85
2018-04-26T08:52:40.037Z,83.89
2018-04-26T08:53:40.300Z,84.94
2018-04-26T08:54:40.018Z,88.56
2018-04-26T08:55:40.267Z,88.08
2018-04-26T08:56:40.273Z,85.41
2018-04-26T08:57:40.248Z,86.36
2018-04-26T08:58:40.238Z,87.79
2018-04-26T08:59:40.273Z,85.7
2018-04-26T09:00:40.221Z,90.84
2018-04-26T09:01:40.208Z,87.6
2018-04-26T09:02:40.207Z,84.46
2018-04-26T09:03:40.197Z,83.22
2018-04-26T09:04:40.181Z,84.75
2018-04-26T09:05:40.174Z,86.94
2018-04-26T09:06:40.231Z,84.75
2018-04-26T09:07:40.158Z,84.27
2018-04-26T09:08:40.146Z,86.55
2018-04-26T09:09:39.880Z,85.03
2018-04-26T09:10:40.127Z,84.27
2018-04-26T09:11:40.121Z,83.7
2018-04-26T09:12:40.109Z,85.8
2018-04-26T09:13:40.100Z,82.37
2018-04-26T09:14:40.089Z,82.93
2018-04-26T09:15:40.162Z,84.08
2018-04-26T09:16:40.072Z,85.99
2018-04-26T09:17:40.062Z,83.32
2018-04-26T09:18:39.797Z,83.03
2018-04-26T09:19:40.045Z,83.13
2018-04-26T09:20:40.041Z,82.84
2018-04-26T09:21:40.028Z,83.32
2018-04-26T09:22:40.021Z,83.98
2018-04-26T09:23:40.008Z,85.03
2018-04-26T09:24:39.998Z,83.03
2018-04-26T09:25:39.999Z,80.18
2018-04-26T09:26:39.986Z,79.7
2018-04-26T09:27:39.714Z,79.51
2018-04-26T09:28:39.966Z,79.51
2018-04-26T09:29:39.955Z,79.41
2018-04-26T09:30:39.686Z,76.27
2018-04-26T09:31:39.937Z,76.12
2018-04-26T09:32:39.672Z,78.22
2018-04-26T09:33:39.924Z,79.27
2018-04-26T09:34:39.977Z,76.12
2018-04-26T09:35:39.644Z,74.31
2018-04-26T09:36:39.891Z,79.17
2018-04-26T09:37:39.626Z,72.25
2018-04-26T09:38:39.989Z,72.31
2018-04-26T09:39:39.607Z,72.41
2018-04-26T09:40:39.856Z,72.5
2018-04-26T09:41:39.590Z,77.64
2018-04-26T09:42:39.838Z,77.36
2018-04-26T09:43:39.830Z,73.96
2018-04-26T09:44:39.565Z,75.3
2018-04-26T09:45:40.017Z,75.59
2018-04-26T09:46:39.548Z,73.87
2018-04-26T09:47:39.801Z,75.49
2018-04-26T09:48:40.052Z,72.44
2018-04-26T09:49:39.780Z,71.48
2018-04-26T09:50:39.775Z,72.34
2018-04-26T09:51:39.768Z,73.11
2018-04-26T09:52:39.814Z,71.14
2018-04-26T09:53:39.749Z,71.14
2018-04-26T09:54:39.741Z,72
2018-04-26T09:55:39.732Z,72.96
2018-04-26T09:56:39.723Z,73.94
2018-04-26T09:57:39.715Z,68.79
2018-04-26T09:58:39.894Z,69.02
2018-04-26T09:59:39.701Z,70.45
2018-04-26T10:00:39.693Z,68.26
2018-04-26T10:01:39.773Z,71.63
2018-04-26T10:02:39.674Z,68.96
2018-04-26T10:03:39.675Z,63.23
2018-04-26T10:04:39.404Z,62.84
2018-04-26T10:05:39.654Z,60.36
2018-04-26T10:06:39.389Z,60.42
2018-04-26T10:07:39.640Z,62.08
2018-04-26T10:08:39.633Z,63.6
2018-04-26T10:09:39.368Z,64.12
2018-04-26T10:10:39.618Z,63.26
2018-04-26T10:11:39.610Z,64.69
2018-04-26T10:12:39.345Z,64.5
2018-04-26T10:13:39.338Z,61.54
2018-04-26T10:14:39.590Z,59.24
2018-04-26T10:15:39.583Z,55.77
2018-04-26T10:16:39.579Z,55.77
2018-04-26T10:17:39.327Z,58.8
2018-04-26T10:18:39.561Z,62.91
2018-04-26T10:19:39.557Z,65.3
2018-04-26T10:20:39.551Z,57.78
2018-04-26T10:21:39.286Z,57.59
2018-04-26T10:22:39.537Z,57.59
2018-04-26T10:23:39.535Z,61.51
2018-04-26T10:24:39.528Z,63.03
2018-04-26T10:25:39.258Z,59.41
2018-04-26T10:26:39.516Z,56.16
2018-04-26T10:27:39.506Z,54.27
2018-04-26T10:28:39.496Z,54.75
2018-04-26T10:29:39.490Z,55.01
2018-04-26T10:30:39.483Z,55.87
2018-04-26T10:31:39.482Z,57.5
2018-04-26T10:32:39.212Z,54.72
2018-04-26T10:33:39.206Z,54.15
2018-04-26T10:34:39.466Z,55.75
2018-04-26T10:35:39.193Z,55.84
2018-04-26T10:36:39.446Z,58.14
2018-04-26T10:37:39.439Z,58.99
2018-04-26T10:38:39.431Z,61.29
2018-04-26T10:39:39.428Z,63.03
2018-04-26T10:40:39.161Z,65.9
2018-04-26T10:41:39.413Z,64.02
2018-04-26T10:42:39.404Z,58.03
2018-04-26T10:43:39.401Z,59.47
2018-04-26T10:44:39.393Z,55.07
2018-04-26T10:45:39.129Z,48.95
2018-04-26T10:46:39.382Z,52.87
2018-04-26T10:47:39.376Z,52.87
2018-04-26T10:48:39.110Z,54.02
2018-04-26T10:49:39.363Z,54.23
2018-04-26T10:50:39.355Z,54.23
2018-04-26T10:51:39.351Z,52.99
2018-04-26T10:52:39.345Z,53.28
2018-04-26T10:53:39.081Z,54.43
2018-04-26T10:54:39.335Z,50.5
2018-04-26T10:55:39.326Z,46.39
2018-04-26T10:56:39.320Z,46.27
2018-04-26T10:57:39.321Z,46.94
2018-04-26T10:58:39.325Z,47.49
2018-04-26T10:59:39.051Z,47.78
2018-04-26T11:00:39.299Z,49.76
2018-04-26T11:01:39.373Z,50.14
2018-04-26T11:02:39.287Z,51.76
2018-04-26T11:03:39.455Z,51.76
2018-04-26T11:04:39.280Z,50.43
2018-04-26T11:05:39.011Z,49.93
2018-04-26T11:06:39.269Z,51.64
2018-04-26T11:07:39.463Z,52.88
2018-04-26T11:08:38.996Z,54.96
2018-04-26T11:09:39.244Z,54.77
2018-04-26T11:10:39.240Z,54.57
2018-04-26T11:11:39.397Z,56.36
2018-04-26T11:12:38.966Z,55.98
2018-04-26T11:13:39.218Z,57.28
2018-04-26T11:14:39.215Z,59.57
2018-04-26T11:15:39.344Z,61.38
2018-04-26T11:16:39.201Z,67.55
2018-04-26T11:17:39.191Z,75.07
2018-04-26T11:18:39.183Z,83.61
2018-04-26T11:19:39.174Z,89.7
2018-04-26T11:20:38.907Z,93.46
2018-04-26T11:21:39.157Z,95.75
2018-04-26T11:22:39.149Z,97.13
2018-04-26T11:23:38.882Z,97.79
2018-04-26T11:24:39.132Z,98.08
2018-04-26T11:25:39.122Z,98.27
2018-04-26T11:26:39.121Z,98.97
2018-04-26T11:27:39.103Z,98.5
2018-04-26T11:28:38.837Z,98.12
2018-04-26T11:29:39.084Z,98.03
2018-04-26T11:30:38.816Z,97.69
2018-04-26T11:31:39.065Z,98.36
2018-04-26T11:32:39.055Z,98.46
2018-04-26T11:33:38.788Z,97.98
2018-04-26T11:34:38.778Z,97.5
2018-04-26T11:35:38.768Z,98.08
2018-04-26T11:36:38.759Z,97.84
2018-04-26T11:37:39.014Z,97.93
2018-04-26T11:38:39.004Z,97.6
2018-04-26T11:39:38.988Z,95.79
2018-04-26T11:40:38.720Z,96.7
2018-04-26T11:41:38.967Z,97.94
2018-04-26T11:42:38.960Z,97.08
2018-04-26T11:43:38.949Z,97.36
2018-04-26T11:44:38.940Z,96.03
2018-04-26T11:45:38.926Z,96.03
2018-04-26T11:46:38.981Z,96.03
2018-04-26T11:47:38.908Z,95.46
2018-04-26T11:48:38.645Z,92.03
2018-04-26T11:49:38.632Z,92.13
2018-04-26T11:50:38.879Z,94.22
2018-04-26T11:51:38.876Z,94.13
2018-04-26T11:52:38.603Z,88.51
2018-04-26T11:53:38.593Z,91.84
2018-04-26T11:54:38.585Z,94.6
2018-04-26T11:55:38.841Z,95.27
2018-04-26T11:56:38.822Z,94.93
2018-04-26T11:57:38.814Z,93.79
2018-04-26T11:58:38.813Z,95.12
2018-04-26T11:59:38.796Z,96.08
2018-04-26T12:00:38.784Z,95.08
2018-04-26T12:01:38.781Z,89.07
2018-04-26T12:02:38.579Z,89.17
2018-04-26T12:03:38.757Z,90.59
2018-04-26T12:04:38.492Z,89.97
2018-04-26T12:05:38.484Z,85.68
2018-04-26T12:06:38.738Z,81.86
2018-04-26T12:07:38.813Z,71.56
2018-04-26T12:08:38.715Z,74.08
2018-04-26T12:09:38.448Z,75.03
2018-04-26T12:10:38.440Z,77.89
2018-04-26T12:11:38.432Z,67.4
2018-04-26T12:12:38.687Z,67.77
2018-04-26T12:13:38.680Z,67.97
2018-04-26T12:14:38.415Z,70.83
2018-04-26T12:15:38.657Z,68.48
2018-04-26T12:16:38.650Z,70.26
2018-04-26T12:17:38.644Z,65.61
2018-04-26T12:18:38.412Z,63.99
2018-04-26T12:19:38.626Z,56.06
2018-04-26T12:20:38.619Z,56.92
2018-04-26T12:21:38.353Z,59.47
2018-04-26T12:22:38.608Z,57.75
2018-04-26T12:23:38.340Z,58.61
2018-04-26T12:24:38.591Z,59.28
2018-04-26T12:25:38.582Z,61.66
2018-04-26T12:26:38.322Z,61.86
2018-04-26T12:27:38.310Z,59.85
2018-04-26T12:28:38.561Z,59.09
2018-04-26T12:29:38.551Z,62.3
2018-04-26T12:30:38.545Z,63.16
2018-04-26T12:31:38.279Z,64.5
2018-04-26T12:32:38.533Z,65.83
2018-04-26T12:33:38.266Z,65.61
2018-04-26T12:34:38.517Z,62.27
2018-04-26T12:35:38.512Z,62.27
2018-04-26T12:36:38.501Z,63.42
2018-04-26T12:37:38.234Z,63.89
2018-04-26T12:38:38.489Z,64.37
2018-04-26T12:39:38.224Z,63.23
2018-04-26T12:40:38.211Z,64.18
2018-04-26T12:41:38.207Z,60.08
2018-04-26T12:42:38.459Z,61.7
2018-04-26T12:43:38.446Z,64.94
2018-04-26T12:44:38.436Z,66.38
2018-04-26T12:45:38.174Z,68.18
2018-04-26T12:46:38.423Z,69.04
2018-04-26T12:47:38.415Z,68.95
2018-04-26T12:48:38.149Z,68.95
2018-04-26T12:49:38.141Z,69.68
2018-04-26T12:50:38.391Z,71.68
2018-04-26T12:51:38.124Z,73.21
2018-04-26T12:52:38.375Z,68.24
2018-04-26T12:53:38.368Z,69.29
2018-04-26T12:54:38.367Z,68.53
2018-04-26T12:55:38.351Z,68.15
2018-04-26T12:56:38.343Z,70.34
2018-04-26T12:57:38.336Z,69.1